Time;durP1;ratioP1;P1;durP2;ratioP2;P2;SDS_P1;SDS_P2;PMS_P1;PMS_P2;Temp;Humidity;BMP_temperature;BMP_pressure;BME280_temperature;BME280_humidity;BME280_pressure;Samples;Min_cycle;Max_cycle;Signal;HPM_P1;HPM_P2
2022/01/11 00:02:00;;;;;;;61.13;21.55;;;;;;;-1.44;100.00;102856.56;4990953;28;20023;-94
2022/01/11 00:04:29;;;;;;;60.47;21.42;;;;;;;-1.37;100.00;102874.22;5005262;28;20039;-93
2022/01/11 00:06:55;;;;;;;57.53;21.65;;;;;;;-1.36;100.00;102870.75;4994305;28;20026;-94
2022/01/11 00:09:32;;;;;;;55.25;20.58;;;;;;;-1.31;100.00;102883.94;4989043;28;20029;-95
2022/01/11 00:11:58;;;;;;;52.40;20.52;;;;;;;-1.39;100.00;102875.88;4972341;28;20040;-95
2022/01/11 00:14:24;;;;;;;54.35;20.40;;;;;;;-1.39;100.00;102885.44;4989778;28;20019;-93
2022/01/11 00:16:49;;;;;;;55.42;22.85;;;;;;;-1.28;100.00;102889.28;4990007;28;20034;-93
2022/01/11 00:19:15;;;;;;;64.05;21.52;;;;;;;-1.36;100.00;102882.94;4987872;28;20033;-94
2022/01/11 00:21:46;;;;;;;61.80;22.48;;;;;;;-1.31;100.00;102899.63;4970531;28;20026;-94
2022/01/11 00:24:29;;;;;;;52.45;20.55;;;;;;;-1.33;100.00;102911.78;4989207;28;20184;-94
2022/01/11 00:26:59;;;;;;;43.85;20.23;;;;;;;-1.39;100.00;102917.66;4989359;28;20062;-95
2022/01/11 00:29:25;;;;;;;47.90;18.92;;;;;;;-1.40;100.00;102915.03;4988638;28;20427;-94
2022/01/11 00:31:51;;;;;;;49.47;20.30;;;;;;;-1.47;100.00;102910.44;4989983;28;20026;-96
2022/01/11 00:34:18;;;;;;;56.70;21.50;;;;;;;-1.46;100.00;102915.72;4991280;28;20023;-95
2022/01/11 00:36:44;;;;;;;50.63;19.40;;;;;;;-1.47;100.00;102919.16;4997972;28;20021;-93
2022/01/11 00:39:10;;;;;;;58.45;21.63;;;;;;;-1.48;100.00;102922.59;4992330;28;20384;-94
2022/01/11 00:41:38;;;;;;;59.17;19.80;;;;;;;-1.51;100.00;102923.38;4994806;28;20037;-94
2022/01/11 00:44:04;;;;;;;62.30;22.20;;;;;;;-1.53;100.00;102922.47;4992503;28;20506;-95
2022/01/11 00:46:29;;;;;;;59.75;21.77;;;;;;;-1.53;100.00;102914.63;4991155;28;20029;-94
2022/01/11 00:48:54;;;;;;;57.50;22.40;;;;;;;-1.56;100.00;102897.97;4989126;28;20487;-94
2022/01/11 00:51:20;;;;;;;57.15;22.27;;;;;;;-1.52;100.00;102900.72;4980804;28;20022;-94
2022/01/11 00:53:45;;;;;;;61.28;21.20;;;;;;;-1.50;100.00;102895.56;5003282;28;20042;-93
2022/01/11 00:56:10;;;;;;;55.72;21.38;;;;;;;-1.38;100.00;102911.63;4999657;28;20476;-95
2022/01/11 00:58:36;;;;;;;59.30;23.00;;;;;;;-1.42;100.00;102890.56;4990066;28;20030;-94
2022/01/11 01:01:01;;;;;;;61.05;23.13;;;;;;;-1.36;100.00;102896.88;4988142;28;20045;-94
2022/01/11 01:03:27;;;;;;;61.05;22.55;;;;;;;-1.30;100.00;102899.66;4982920;28;20105;-94
2022/01/11 01:05:53;;;;;;;57.30;21.65;;;;;;;-1.28;100.00;102907.56;4990278;28;20053;-95
2022/01/11 01:08:18;;;;;;;58.95;22.85;;;;;;;-1.27;100.00;102909.34;4987996;28;20193;-95
2022/01/11 01:10:46;;;;;;;58.50;22.13;;;;;;;-1.30;100.00;102897.03;4986935;28;20491;-95
2022/01/11 01:13:18;;;;;;;55.42;21.45;;;;;;;-1.27;100.00;102907.59;4992098;28;20045;-95
2022/01/11 01:15:47;;;;;;;60.58;21.73;;;;;;;-1.27;100.00;102912.81;4975056;28;20125;-94
2022/01/11 01:18:15;;;;;;;57.70;21.80;;;;;;;-1.29;100.00;102900.56;4989860;28;20523;-95
2022/01/11 01:20:42;;;;;;;51.05;22.45;;;;;;;-1.23;100.00;102908.59;4990683;28;20077;-93
2022/01/11 01:23:07;;;;;;;56.60;22.85;;;;;;;-1.21;100.00;102919.06;4990535;28;20113;-93
2022/01/11 01:25:33;;;;;;;60.78;22.80;;;;;;;-1.26;100.00;102918.94;4991140;28;20058;-93
2022/01/11 01:27:58;;;;;;;61.75;24.88;;;;;;;-1.24;100.00;102926.84;4989645;28;20459;-95
2022/01/11 01:30:24;;;;;;;55.10;22.60;;;;;;;-1.28;100.00;102912.78;4992328;28;20089;-92
2022/01/11 01:32:51;;;;;;;61.80;23.48;;;;;;;-1.26;100.00;102913.72;4995129;28;20026;-94
2022/01/11 01:35:19;;;;;;;62.95;23.67;;;;;;;-1.32;100.00;102908.31;5012257;28;20099;-94
2022/01/11 01:37:45;;;;;;;64.85;23.67;;;;;;;-1.27;100.00;102915.44;4993914;28;20025;-94
2022/01/11 01:40:12;;;;;;;56.90;23.27;;;;;;;-1.27;100.00;102925.91;4994823;28;20014;-94
2022/01/11 01:42:38;;;;;;;62.75;24.55;;;;;;;-1.27;100.00;102920.66;5008775;28;20088;-93
2022/01/11 01:45:04;;;;;;;63.47;24.15;;;;;;;-1.36;100.00;102903.81;4995565;28;20026;-94
2022/01/11 01:47:30;;;;;;;57.92;23.63;;;;;;;-1.26;100.00;102929.38;4991648;28;20070;-94
2022/01/11 01:49:56;;;;;;;61.28;24.17;;;;;;;-1.27;100.00;102931.13;4988919;28;20422;-95
2022/01/11 01:52:22;;;;;;;64.40;24.42;;;;;;;-1.26;100.00;102934.63;4990714;28;20030;-94
2022/01/11 01:54:48;;;;;;;59.20;23.42;;;;;;;-1.31;100.00;102926.63;4991047;28;20076;-94
2022/01/11 01:57:13;;;;;;;60.47;24.30;;;;;;;-1.28;100.00;102931.09;4990278;28;20030;-94
2022/01/11 01:59:40;;;;;;;59.60;23.70;;;;;;;-1.26;100.00;102932.88;4989736;28;20030;-94
2022/01/11 02:02:08;;;;;;;59.47;22.27;;;;;;;-1.28;100.00;102925.84;4990425;28;20042;-93
2022/01/11 02:04:33;;;;;;;65.72;24.15;;;;;;;-1.29;100.00;102934.53;4990994;28;20049;-92
2022/01/11 02:06:59;;;;;;;56.92;23.90;;;;;;;-1.37;100.00;102922.97;4990152;28;20034;-94
2022/01/11 02:09:24;;;;;;;58.33;23.25;;;;;;;-1.34;100.00;102931.78;4988006;28;20396;-93
2022/01/11 02:11:49;;;;;;;62.22;23.50;;;;;;;-1.38;100.00;102934.22;4972890;28;20022;-93
2022/01/11 02:14:15;;;;;;;57.95;23.88;;;;;;;-1.39;100.00;102932.47;4992656;28;20057;-94
2022/01/11 02:16:41;;;;;;;60.53;23.60;;;;;;;-1.49;100.00;102917.34;4995487;28;20254;-94
2022/01/11 02:19:06;;;;;;;62.72;23.10;;;;;;;-1.47;100.00;102931.31;4993708;28;20053;-93
2022/01/11 02:21:31;;;;;;;65.50;24.90;;;;;;;-1.50;100.00;102926.91;4993645;28;20065;-93
2022/01/11 02:23:58;;;;;;;60.38;24.75;;;;;;;-1.42;100.00;102934.97;4999189;28;20053;-94
2022/01/11 02:26:23;;;;;;;58.70;24.55;;;;;;;-1.43;100.00;102946.25;5001672;28;20105;-94
2022/01/11 02:28:50;;;;;;;65.22;25.05;;;;;;;-1.42;100.00;102948.94;5013064;28;20034;-92
2022/01/11 02:31:15;;;;;;;59.28;23.25;;;;;;;-1.46;100.00;102940.94;5015776;28;20010;-93
2022/01/11 02:33:46;;;;;;;60.10;24.35;;;;;;;-1.44;100.00;102939.28;5013397;28;20077;-94
2022/01/11 02:36:24;;;;;;;61.38;24.60;;;;;;;-1.40;100.00;102949.84;4995885;28;20022;-95
2022/01/11 02:38:52;;;;;;;55.63;24.20;;;;;;;-1.45;100.00;102941.00;4977172;28;20023;-94
2022/01/11 02:41:18;;;;;;;61.95;25.77;;;;;;;-1.63;100.00;102903.81;4994240;28;20034;-95
2022/01/11 02:43:48;;;;;;;61.70;25.02;;;;;;;-1.38;100.00;102958.66;4994442;28;20026;-95
2022/01/11 02:46:21;;;;;;;61.67;24.50;;;;;;;-1.37;100.00;102968.25;4994556;28;20026;-94
2022/01/11 02:48:47;;;;;;;63.47;26.05;;;;;;;-1.36;100.00;102971.75;4991793;28;20121;-95
2022/01/11 02:51:13;;;;;;;63.28;25.85;;;;;;;-1.36;100.00;102963.91;4993966;28;20019;-94
2022/01/11 02:53:43;;;;;;;63.20;25.63;;;;;;;-1.37;100.00;102973.47;4987781;28;20042;-94
2022/01/11 02:56:09;;;;;;;68.97;26.23;;;;;;;-1.40;100.00;102964.66;4991712;28;20476;-94
2022/01/11 02:58:34;;;;;;;70.93;26.52;;;;;;;-1.49;100.00;102957.41;4990983;28;20384;-94
2022/01/11 03:00:59;;;;;;;64.03;26.95;;;;;;;-1.39;100.00;102974.25;4991315;28;20023;-95
2022/01/11 03:03:25;;;;;;;68.82;27.40;;;;;;;-1.50;100.00;102968.69;4992168;28;20388;-96
2022/01/11 03:05:56;;;;;;;64.97;26.10;;;;;;;-1.46;100.00;102972.28;4992408;28;20049;-95
2022/01/11 03:08:24;;;;;;;63.50;27.00;;;;;;;-1.54;100.00;102966.81;4975437;28;20034;-93
2022/01/11 03:10:50;;;;;;;71.50;27.63;;;;;;;-1.54;100.00;102970.31;4986300;28;20037;-96
2022/01/11 03:13:16;;;;;;;65.75;25.92;;;;;;;-1.43;100.00;102985.44;4997147;28;20037;-93
2022/01/11 03:15:42;;;;;;;72.53;28.15;;;;;;;-1.41;100.00;102983.78;4991740;28;20064;-94
2022/01/11 03:18:07;;;;;;;69.47;28.02;;;;;;;-1.43;100.00;102978.50;4978285;28;20038;-92
2022/01/11 03:20:34;;;;;;;73.03;27.05;;;;;;;-1.42;100.00;102995.03;4992721;28;20165;-94
2022/01/11 03:22:59;;;;;;;71.18;27.05;;;;;;;-1.43;100.00;102985.44;4996317;28;20101;-92
2022/01/11 03:25:25;;;;;;;69.57;27.27;;;;;;;-1.47;100.00;102974.00;5014811;28;20307;-93
2022/01/11 03:27:51;;;;;;;66.00;26.38;;;;;;;-1.53;100.00;102969.47;4998519;28;20039;-94
2022/01/11 03:30:16;;;;;;;69.80;27.50;;;;;;;-1.63;100.00;102948.22;4991839;28;20585;-94
2022/01/11 03:32:41;;;;;;;65.40;25.95;;;;;;;-1.52;100.00;102983.41;4992117;28;20031;-93
2022/01/11 03:35:09;;;;;;;65.07;25.55;;;;;;;-1.52;100.00;102984.31;4991746;28;20040;-93
2022/01/11 03:37:35;;;;;;;60.67;25.75;;;;;;;-1.64;100.00;102956.91;4988547;28;20177;-93
2022/01/11 03:40:02;;;;;;;66.45;27.33;;;;;;;-1.55;100.00;102972.84;4992367;28;20046;-94
2022/01/11 03:42:27;;;;;;;65.45;26.13;;;;;;;-1.55;100.00;102965.03;4992316;28;20037;-93
2022/01/11 03:44:54;;;;;;;67.07;26.25;;;;;;;-1.53;100.00;102969.47;4991359;28;20031;-94
2022/01/11 03:47:19;;;;;;;66.38;26.67;;;;;;;-1.53;100.00;102972.09;4973750;28;20033;-94
2022/01/11 03:49:44;;;;;;;65.93;26.20;;;;;;;-1.61;100.00;102954.38;4990151;28;20036;-93
2022/01/11 03:52:10;;;;;;;65.07;25.05;;;;;;;-1.66;100.00;102950.75;4970607;28;20031;-92
2022/01/11 03:57:31;;;;;;;63.78;26.40;;;;;;;-1.55;100.00;102979.00;4968515;28;20053;-94
2022/01/11 04:00:03;;;;;;;68.82;26.95;;;;;;;-1.57;100.00;102969.31;4990828;28;20027;-94
2022/01/11 04:02:29;;;;;;;64.53;26.75;;;;;;;-1.52;100.00;102983.41;4992400;28;20258;-93
2022/01/11 04:04:54;;;;;;;75.82;31.05;;;;;;;-1.61;100.00;102977.91;4993021;28;20049;-96
2022/01/11 04:07:21;;;;;;;75.13;29.35;;;;;;;-1.57;100.00;102985.00;4991350;28;20117;-93
2022/01/11 04:09:48;;;;;;;70.70;28.08;;;;;;;-1.60;100.00;102992.72;4972084;28;20053;-95
2022/01/11 04:12:15;;;;;;;71.38;27.80;;;;;;;-1.57;100.00;102991.09;4987135;28;20081;-94
2022/01/11 04:14:41;;;;;;;77.00;30.05;;;;;;;-1.55;100.00;102983.31;4973328;28;20033;-93
2022/01/11 04:17:06;;;;;;;80.88;31.20;;;;;;;-1.61;100.00;102978.78;4990729;28;20030;-94
2022/01/11 04:19:32;;;;;;;83.75;32.20;;;;;;;-1.68;100.00;102982.00;4972949;28;20032;-95
2022/01/11 04:21:57;;;;;;;83.68;32.05;;;;;;;-1.62;100.00;102987.47;4973109;28;20034;-94
2022/01/11 04:24:23;;;;;;;82.68;31.75;;;;;;;-1.62;100.00;102987.47;4992027;28;20029;-93
2022/01/11 04:26:49;;;;;;;75.50;30.58;;;;;;;-1.71;100.00;102976.72;4991434;28;20030;-94
2022/01/11 04:29:14;;;;;;;80.20;31.13;;;;;;;-1.75;100.00;102977.44;4991827;28;20045;-93
2022/01/11 04:31:40;;;;;;;79.75;30.13;;;;;;;-1.65;100.00;102997.78;4992087;28;20118;-95
2022/01/11 04:34:06;;;;;;;84.35;31.55;;;;;;;-1.65;100.00;102999.50;4991376;28;20041;-95
2022/01/11 04:36:33;;;;;;;82.80;30.40;;;;;;;-1.65;100.00;103004.75;4958550;28;20458;-94
2022/01/11 04:38:59;;;;;;;76.82;30.67;;;;;;;-1.72;100.00;102995.78;4988829;28;20030;-96
2022/01/11 04:41:25;;;;;;;78.90;31.52;;;;;;;-1.77;100.00;102989.53;4974221;28;20117;-94
2022/01/11 04:43:50;;;;;;;81.72;30.67;;;;;;;-1.69;100.00;103000.25;4990689;28;20101;-95
2022/01/11 04:46:18;;;;;;;77.00;29.63;;;;;;;-1.71;100.00;102992.38;4990710;28;20362;-94
2022/01/11 04:48:44;;;;;;;78.20;30.00;;;;;;;-1.76;100.00;103004.34;4988250;28;20095;-94
2022/01/11 04:51:10;;;;;;;81.85;31.92;;;;;;;-1.84;100.00;103003.19;4982688;28;20396;-93
2022/01/11 04:53:36;;;;;;;84.90;32.17;;;;;;;-1.74;100.00;103018.38;4990173;28;20030;-94
2022/01/11 04:56:02;;;;;;;78.15;29.80;;;;;;;-1.75;100.00;103011.38;4990448;28;20476;-94
2022/01/11 04:58:27;;;;;;;80.82;31.15;;;;;;;-1.89;100.00;102992.59;4988359;28;20041;-95
2022/01/11 05:00:52;;;;;;;84.25;30.92;;;;;;;-1.84;100.00;103005.81;4990263;28;20109;-94
2022/01/11 05:03:20;;;;;;;83.55;31.42;;;;;;;-1.95;100.00;102986.31;4990148;28;20412;-94
2022/01/11 05:05:46;;;;;;;80.45;30.85;;;;;;;-1.89;100.00;103010.00;4989781;28;20112;-93
2022/01/11 05:08:12;;;;;;;81.22;30.92;;;;;;;-1.93;100.00;103008.09;4988487;28;20471;-95
2022/01/11 05:10:42;;;;;;;84.40;33.78;;;;;;;-1.99;100.00;103000.09;4990466;28;20228;-95
2022/01/11 05:13:09;;;;;;;89.35;32.78;;;;;;;-2.04;100.00;102994.69;4973247;28;20369;-94
2022/01/11 05:15:35;;;;;;;84.43;31.45;;;;;;;-2.06;100.00;102992.00;5000461;28;20037;-94
2022/01/11 05:18:00;;;;;;;84.72;32.13;;;;;;;-2.13;100.00;102983.91;5004299;28;20035;-93
2022/01/11 05:20:25;;;;;;;82.78;32.78;;;;;;;-2.17;100.00;102985.56;4973638;28;20041;-94
2022/01/11 05:22:50;;;;;;;80.00;31.40;;;;;;;-2.15;100.00;102994.31;4990467;28;20026;-94
2022/01/11 05:25:16;;;;;;;82.53;31.38;;;;;;;-2.17;100.00;102982.94;4989468;28;20034;-94
2022/01/11 05:27:42;;;;;;;82.22;31.60;;;;;;;-2.15;100.00;102986.47;5002800;28;20396;-94
2022/01/11 05:30:09;;;;;;;78.97;30.50;;;;;;;-2.19;100.00;102981.97;4990235;28;20037;-94
2022/01/11 05:32:35;;;;;;;82.28;31.48;;;;;;;-2.28;100.00;102986.88;5001491;28;20034;-94
2022/01/11 05:35:04;;;;;;;80.28;30.60;;;;;;;-2.34;100.00;102984.94;5012492;28;20035;-94
2022/01/11 05:37:30;;;;;;;74.65;28.45;;;;;;;-2.49;100.00;102960.91;4995876;28;20030;-93
2022/01/11 05:39:55;;;;;;;78.47;30.08;;;;;;;-2.41;100.00;102985.53;5011691;28;20034;-92
2022/01/11 05:42:21;;;;;;;73.28;29.13;;;;;;;-2.51;100.00;102981.72;4984886;28;20320;-93
2022/01/11 05:44:46;;;;;;;75.75;28.75;;;;;;;-2.54;100.00;102983.31;4987461;28;20030;-93
2022/01/11 05:47:11;;;;;;;81.45;29.45;;;;;;;-2.63;100.00;102983.00;4988844;28;20030;-94
2022/01/11 05:49:37;;;;;;;81.50;29.98;;;;;;;-2.71;100.00;102971.38;4974163;28;20027;-94
2022/01/11 05:52:02;;;;;;;81.88;31.13;;;;;;;-2.62;100.00;102990.84;4993330;28;20415;-94
2022/01/11 05:54:28;;;;;;;82.10;31.45;;;;;;;-2.67;100.00;102981.97;4977208;28;20375;-95
2022/01/11 05:56:53;;;;;;;85.97;30.60;;;;;;;-2.67;100.00;102987.19;4993477;28;20121;-96
2022/01/11 05:59:18;;;;;;;84.10;30.20;;;;;;;-2.84;100.00;102978.72;4974863;28;20035;-94
2022/01/11 06:01:44;;;;;;;83.75;28.48;;;;;;;-2.71;100.00;103013.09;4993159;28;20101;-94
2022/01/11 06:04:09;;;;;;;81.88;30.65;;;;;;;-2.80;100.00;103000.56;4994455;28;20054;-95
2022/01/11 06:06:34;;;;;;;77.80;29.00;;;;;;;-2.72;100.00;103006.06;4994953;28;20041;-94
2022/01/11 06:09:02;;;;;;;76.63;29.95;;;;;;;-2.72;100.00;103020.00;4994174;28;20458;-93
2022/01/11 06:11:28;;;;;;;76.88;30.00;;;;;;;-2.76;100.00;103024.22;4981990;28;20062;-93
2022/01/11 06:13:53;;;;;;;77.20;30.40;;;;;;;-2.76;100.00;103019.00;4995363;28;20037;-93
2022/01/11 06:16:20;;;;;;;83.65;30.25;;;;;;;-2.77;100.00;103026.75;4976542;28;20400;-94
2022/01/11 06:18:46;;;;;;;83.82;30.38;;;;;;;-2.78;100.00;103028.47;4993211;28;20054;-93
2022/01/11 06:21:11;;;;;;;79.38;29.95;;;;;;;-2.84;100.00;103027.38;4994610;28;20058;-94
2022/01/11 06:23:37;;;;;;;80.18;28.92;;;;;;;-2.82;100.00;103033.50;4993483;28;20468;-94
2022/01/11 06:26:02;;;;;;;78.20;30.38;;;;;;;-2.89;100.00;103034.09;4993773;28;20108;-93
2022/01/11 06:28:27;;;;;;;81.63;30.13;;;;;;;-2.87;100.00;103042.88;4976512;28;20041;-94
2022/01/11 06:30:53;;;;;;;81.78;30.73;;;;;;;-2.94;100.00;103038.25;4998816;28;20037;-93
2022/01/11 06:33:18;;;;;;;76.93;28.50;;;;;;;-2.92;100.00;103053.13;4997332;28;20030;-95
2022/01/11 06:35:43;;;;;;;84.95;30.35;;;;;;;-2.95;100.00;103052.09;4996539;28;20078;-94
2022/01/11 06:38:09;;;;;;;75.18;29.05;;;;;;;-2.89;100.00;103060.16;4990589;28;20487;-94
2022/01/11 06:40:34;;;;;;;80.55;30.33;;;;;;;-2.96;100.00;103061.63;5005503;28;20073;-94
2022/01/11 06:42:59;;;;;;;75.68;28.05;;;;;;;-2.93;100.00;103072.16;5004026;28;20156;-94
2022/01/11 06:45:25;;;;;;;74.45;29.85;;;;;;;-2.97;100.00;103069.38;4977314;28;20019;-94
2022/01/11 06:47:51;;;;;;;71.88;28.45;;;;;;;-2.99;100.00;103074.53;4986245;28;20357;-95
2022/01/11 06:50:17;;;;;;;74.22;30.05;;;;;;;-3.10;100.00;103054.97;4993237;28;20443;-94
2022/01/11 06:52:42;;;;;;;71.80;28.88;;;;;;;-3.18;100.00;103045.94;4971161;28;20022;-94
2022/01/11 06:55:09;;;;;;;73.85;29.33;;;;;;;-3.02;100.00;103077.00;4990940;28;20057;-94
2022/01/11 06:57:35;;;;;;;69.63;29.35;;;;;;;-3.06;100.00;103069.91;4991754;28;20040;-95
2022/01/11 07:00:00;;;;;;;71.63;29.02;;;;;;;-3.06;100.00;103078.59;4992597;28;20026;-94
2022/01/11 07:02:26;;;;;;;72.80;30.38;;;;;;;-3.09;100.00;103075.00;4991265;28;20460;-94
2022/01/11 07:04:51;;;;;;;71.63;29.38;;;;;;;-3.10;100.00;103074.09;4993713;28;20050;-90
2022/01/11 07:07:17;;;;;;;78.20;28.85;;;;;;;-3.06;100.00;103083.81;4981586;28;20026;-91
2022/01/11 07:09:42;;;;;;;77.93;32.45;;;;;;;-3.01;100.00;103084.00;4972187;28;20062;-91
2022/01/11 07:12:08;;;;;;;83.00;32.03;;;;;;;-3.11;100.00;103068.81;4978826;28;20129;-93
2022/01/11 07:14:33;;;;;;;77.38;31.25;;;;;;;-3.11;100.00;103064.50;5008325;28;20022;-92
2022/01/11 07:16:58;;;;;;;86.43;33.67;;;;;;;-3.01;100.00;103078.78;4997651;28;20038;-89
2022/01/11 07:19:24;;;;;;;76.97;30.48;;;;;;;-2.99;100.00;103086.69;4974156;28;20027;-95
2022/01/11 07:21:49;;;;;;;85.63;32.60;;;;;;;-3.02;100.00;103092.63;5013000;28;20038;-96
2022/01/11 07:24:16;;;;;;;81.63;30.52;;;;;;;-3.37;100.00;103031.31;5096614;23;20062;-95
2022/01/11 07:26:42;;;;;;;70.97;29.98;;;;;;;-3.13;100.00;103067.88;4976726;28;20031;-95
2022/01/11 07:29:09;;;;;;;74.22;30.90;;;;;;;-3.28;100.00;103057.72;4974151;28;20035;-95
2022/01/11 07:31:37;;;;;;;74.15;28.77;;;;;;;-2.96;100.00;103112.88;4955229;28;20027;-96
2022/01/11 07:34:03;;;;;;;71.03;30.70;;;;;;;-3.28;100.00;103061.19;4968674;28;20027;-96
2022/01/11 07:36:29;;;;;;;67.60;28.13;;;;;;;-3.21;100.00;103069.28;4980141;28;20030;-96
2022/01/11 07:38:54;;;;;;;68.82;28.40;;;;;;;-3.09;100.00;103096.72;4968106;28;20023;-91
2022/01/11 07:41:22;;;;;;;64.50;27.90;;;;;;;-2.94;100.00;103119.00;4965533;28;20062;-95
2022/01/11 07:43:47;;;;;;;61.28;27.63;;;;;;;-3.20;100.00;103082.38;4999778;28;20140;-95
2022/01/11 07:46:13;;;;;;;64.20;26.90;;;;;;;-3.13;100.00;103093.94;4969506;28;20122;-94
2022/01/11 07:48:38;;;;;;;60.78;26.90;;;;;;;-3.14;100.00;103092.13;4972421;28;20031;-92
2022/01/11 07:51:03;;;;;;;60.30;28.17;;;;;;;-2.95;100.00;103122.47;4972478;28;20023;-96
2022/01/11 07:53:29;;;;;;;60.55;26.73;;;;;;;-3.12;100.00;103096.59;4989751;28;20050;-95
2022/01/11 07:55:57;;;;;;;58.47;26.63;;;;;;;-3.03;100.00;103102.19;4979724;28;20087;-96
2022/01/11 07:58:23;;;;;;;59.55;25.42;;;;;;;-2.84;100.00;103129.00;4979746;28;20022;-93
2022/01/11 08:00:48;;;;;;;61.28;27.50;;;;;;;-2.85;100.00;103115.06;4973340;28;20081;-93
2022/01/11 08:03:13;;;;;;;57.80;26.27;;;;;;;-2.70;100.00;103129.56;4974107;28;20039;-95
2022/01/11 08:05:39;;;;;;;52.88;25.27;;;;;;;-2.71;100.00;103120.84;4976519;28;20023;-95
2022/01/11 08:08:08;;;;;;;52.40;24.63;;;;;;;-3.01;100.00;103064.06;4982511;28;20023;-96
2022/01/11 08:10:33;;;;;;;56.08;26.05;;;;;;;-2.68;100.00;103120.94;4986990;28;20023;-92
2022/01/11 08:13:02;;;;;;;55.05;26.58;;;;;;;-2.71;100.00;103094.78;4996137;28;20019;-94
2022/01/11 08:15:27;;;;;;;58.03;26.67;;;;;;;-2.61;100.00;103107.34;4978043;28;20484;-92
2022/01/11 08:17:53;;;;;;;56.92;25.98;;;;;;;-2.58;100.00;103117.00;4965695;28;20093;-91
2022/01/11 08:20:18;;;;;;;53.42;25.50;;;;;;;-2.63;100.00;103098.59;5129199;23;20025;-96
2022/01/11 08:22:48;;;;;;;54.63;26.75;;;;;;;-2.80;100.00;103065.72;4975810;28;20396;-96
2022/01/11 08:25:14;;;;;;;48.80;24.15;;;;;;;-2.37;100.00;103130.00;4991554;28;20027;-96
2022/01/11 08:27:39;;;;;;;49.22;24.23;;;;;;;-2.33;100.00;103129.28;4987070;28;20079;-96
2022/01/11 08:30:06;;;;;;;52.70;24.42;;;;;;;-2.43;100.00;103106.28;4972195;28;20039;-95
2022/01/11 08:32:31;;;;;;;47.55;23.85;;;;;;;-2.52;100.00;103089.44;4979439;28;20034;-86
2022/01/11 08:34:56;;;;;;;50.70;22.98;;;;;;;-2.29;100.00;103119.03;4971966;28;20082;-91
2022/01/11 08:37:21;;;;;;;46.17;23.10;;;;;;;-2.21;100.00;103114.09;4963546;28;20038;-91
2022/01/11 08:39:47;;;;;;;47.22;23.20;;;;;;;-2.20;100.00;103096.72;4949637;28;20435;-88
2022/01/11 08:42:12;;;;;;;45.13;22.77;;;;;;;-1.93;100.00;103131.66;4971021;28;20023;-88
2022/01/11 08:44:43;;;;;;;44.42;23.80;;;;;;;-1.95;100.00;103112.47;4970152;28;20030;-89
2022/01/11 08:47:08;;;;;;;40.47;22.40;;;;;;;-1.79;100.00;103122.63;4968166;28;20500;-89
2022/01/11 08:49:34;;;;;;;44.38;23.35;;;;;;;-1.70;100.00;103129.91;4970558;28;20101;-89
2022/01/11 08:52:00;;;;;;;43.42;22.00;;;;;;;-1.73;100.00;103105.41;4962597;28;20026;-88
2022/01/11 08:54:25;;;;;;;43.22;22.40;;;;;;;-1.52;100.00;103125.34;4958764;28;20037;-89
2022/01/11 08:56:55;;;;;;;39.80;22.70;;;;;;;-1.39;100.00;103125.75;4966516;28;20034;-88
2022/01/11 08:59:21;;;;;;;38.97;21.40;;;;;;;-1.23;100.00;103122.84;4971820;28;20290;-88
2022/01/11 09:01:47;;;;;;;48.15;23.98;;;;;;;-1.12;100.00;103105.81;4974872;28;20369;-89
2022/01/11 09:04:13;;;;;;;40.90;21.30;;;;;;;-0.98;100.00;103115.84;4967781;28;20027;-89
2022/01/11 09:06:38;;;;;;;39.28;21.35;;;;;;;-0.91;100.00;103113.47;4989724;28;20022;-89
2022/01/11 09:09:04;;;;;;;36.00;20.42;;;;;;;-0.70;100.00;103136.81;4980117;28;20031;-89
2022/01/11 09:11:29;;;;;;;42.83;21.65;;;;;;;-0.68;100.00;103124.66;4971157;28;20034;-89
2022/01/11 09:13:55;;;;;;;39.13;20.92;;;;;;;-0.53;100.00;103132.13;4996687;28;20038;-90
2022/01/11 09:16:23;;;;;;;35.17;19.27;;;;;;;-0.38;100.00;103150.00;4974604;28;20078;-90
2022/01/11 09:18:49;;;;;;;38.33;18.77;;;;;;;-0.28;100.00;103144.25;4972643;28;20035;-89
2022/01/11 09:21:16;;;;;;;36.47;19.30;;;;;;;-0.18;100.00;103140.16;4972346;28;20057;-89
2022/01/11 09:23:42;;;;;;;35.78;19.08;;;;;;;-0.03;100.00;103153.72;4971351;28;20027;-89
2022/01/11 09:26:08;;;;;;;34.78;19.30;;;;;;;0.00;100.00;103148.59;4975184;28;20022;-88
2022/01/11 09:28:33;;;;;;;33.88;19.02;;;;;;;0.10;100.00;103134.91;4956264;28;20027;-88
2022/01/11 09:30:58;;;;;;;37.67;20.02;;;;;;;0.22;100.00;103147.47;4967185;28;20028;-88
2022/01/11 09:33:24;;;;;;;34.97;18.60;;;;;;;0.22;100.00;103142.22;4957297;28;20385;-89
2022/01/11 09:35:49;;;;;;;34.58;18.85;;;;;;;0.27;100.00;103143.25;4970142;28;20388;-89
2022/01/11 09:38:15;;;;;;;30.40;18.00;;;;;;;0.32;100.00;103153.84;4963134;28;20106;-91
2022/01/11 09:40:40;;;;;;;34.88;18.98;;;;;;;0.46;99.76;103156.03;4978845;28;20038;-94
2022/01/11 09:43:06;;;;;;;31.88;18.60;;;;;;;0.62;99.37;103161.66;4955314;28;20106;-94
2022/01/11 09:45:31;;;;;;;31.48;18.10;;;;;;;0.77;99.05;103177.81;4980326;28;20083;-94
2022/01/11 09:47:57;;;;;;;30.70;17.58;;;;;;;0.83;98.21;103171.84;4977563;28;20035;-93
2022/01/11 09:50:22;;;;;;;31.88;17.58;;;;;;;0.91;97.91;103171.19;4996742;28;20039;-92
2022/01/11 09:52:48;;;;;;;30.17;17.25;;;;;;;0.80;97.29;103133.34;4967924;28;20086;-91
2022/01/11 09:55:14;;;;;;;33.10;17.83;;;;;;;1.06;96.96;103164.59;4959641;28;20472;-93
2022/01/11 09:57:41;;;;;;;30.25;17.15;;;;;;;1.14;96.46;103149.94;4978313;28;20432;-92
2022/01/11 10:00:09;;;;;;;29.45;16.83;;;;;;;1.27;95.73;103159.00;4949195;29;20031;-92
2022/01/11 10:02:35;;;;;;;31.58;17.70;;;;;;;1.32;95.62;103166.13;4960291;28;20031;-91
2022/01/11 10:05:05;;;;;;;27.92;16.92;;;;;;;1.33;95.68;103167.88;4974028;28;20030;-91
2022/01/11 10:07:40;;;;;;;33.60;17.17;;;;;;;1.34;95.69;103153.03;4957502;28;20019;-90
2022/01/11 10:10:14;;;;;;;29.90;16.38;;;;;;;1.47;95.10;103176.09;4963169;28;20461;-91
2022/01/11 10:12:42;;;;;;;30.98;16.20;;;;;;;1.44;94.83;103168.16;4957821;29;20023;-91
2022/01/11 10:15:08;;;;;;;28.33;16.88;;;;;;;1.52;94.68;103176.22;4957924;28;20035;-92
2022/01/11 10:17:42;;;;;;;32.78;17.42;;;;;;;1.51;94.84;103167.47;4967209;28;20073;-92
2022/01/11 10:20:12;;;;;;;30.33;16.25;;;;;;;1.57;94.02;103178.09;4975081;28;20035;-92
2022/01/11 10:22:49;;;;;;;28.73;16.20;;;;;;;1.72;94.46;103191.59;4961721;28;20109;-91
2022/01/11 10:25:16;;;;;;;30.38;16.85;;;;;;;1.72;93.23;103181.09;4955100;28;20046;-92
2022/01/11 10:27:41;;;;;;;25.60;15.00;;;;;;;1.69;93.84;103159.13;4967400;28;20089;-92
2022/01/11 10:30:17;;;;;;;24.50;15.13;;;;;;;1.83;93.28;103181.31;4955342;28;20062;-92
2022/01/11 10:32:47;;;;;;;27.52;14.68;;;;;;;1.83;92.67;103169.91;4958595;28;20023;-90
2022/01/11 10:35:19;;;;;;;25.05;15.10;;;;;;;1.92;93.80;103175.38;4970762;28;20145;-90
2022/01/11 10:37:48;;;;;;;28.42;15.35;;;;;;;1.94;93.60;103155.31;4957196;28;20472;-89
2022/01/11 10:40:32;;;;;;;27.67;16.80;;;;;;;2.04;93.55;103159.00;4982127;28;20030;-91
2022/01/11 10:43:01;;;;;;;;;;;;;;;2.20;96.19;103168.97;4954805;29;20036;-90
2022/01/11 10:45:29;;;;;;;27.90;15.93;;;;;;;2.20;92.74;103168.97;4965202;28;19914;-91
2022/01/11 10:47:58;;;;;;;27.15;15.73;;;;;;;2.18;92.21;103152.31;4972129;28;20343;-92
2022/01/11 10:50:28;;;;;;;25.05;15.73;;;;;;;2.29;92.36;103155.16;4975968;28;20122;-92
2022/01/11 10:53:00;;;;;;;32.50;16.05;;;;;;;2.41;92.18;103158.91;4960074;28;20019;-92
2022/01/11 10:55:29;;;;;;;31.02;15.30;;;;;;;2.63;92.22;103175.09;4974096;28;20341;-93
2022/01/11 10:58:00;;;;;;;28.80;15.07;;;;;;;2.77;91.42;103170.13;4971627;28;20026;-94
2022/01/11 11:00:39;;;;;;;26.63;15.07;;;;;;;2.86;90.78;103171.16;4956685;28;20022;-92
2022/01/11 11:03:26;;;;;;;26.00;15.05;;;;;;;2.98;90.77;103171.38;4950254;28;20074;-94
2022/01/11 11:06:00;;;;;;;26.48;14.23;;;;;;;3.03;90.82;103173.22;4937867;28;20389;-92